createdAt,value
2018-08-20T00:01:35.539Z,18.57
2018-08-20T00:04:05.828Z,18.79
2018-08-20T00:06:47.579Z,18.44
2018-08-20T00:09:16.123Z,18.34
2018-08-20T00:11:45.411Z,18.70
2018-08-20T00:14:13.919Z,18.72
2018-08-20T00:16:43.489Z,18.59
2018-08-20T00:19:13.780Z,18.69
2018-08-20T00:21:44.027Z,18.57
2018-08-20T00:24:12.439Z,18.51
2018-08-20T00:26:40.975Z,18.51
2018-08-20T00:29:09.590Z,18.59
2018-08-20T00:31:38.011Z,18.52
2018-08-20T00:34:06.554Z,18.53
2018-08-20T00:36:35.099Z,18.51
2018-08-20T00:39:03.836Z,18.47
2018-08-20T00:41:32.370Z,18.62
2018-08-20T00:44:00.859Z,18.40
2018-08-20T00:46:29.315Z,18.14
2018-08-20T00:48:57.752Z,18.43
2018-08-20T00:51:26.424Z,18.26
2018-08-20T00:53:54.852Z,18.41
2018-08-20T00:56:23.251Z,18.37
2018-08-20T00:58:51.883Z,18.14
2018-08-20T01:01:20.288Z,18.20
2018-08-20T01:03:48.715Z,18.39
2018-08-20T01:06:17.372Z,17.75
2018-08-20T01:08:45.821Z,17.59
2018-08-20T01:11:14.295Z,17.50
2018-08-20T01:13:42.827Z,17.69
2018-08-20T01:16:11.276Z,17.48
2018-08-20T01:18:39.783Z,17.71
2018-08-20T01:21:08.417Z,17.81
2018-08-20T01:23:36.843Z,17.79
2018-08-20T01:26:05.247Z,17.94
2018-08-20T01:28:33.686Z,17.63
2018-08-20T01:31:02.179Z,17.71
2018-08-20T01:33:30.627Z,17.66
2018-08-20T01:35:59.124Z,17.66
2018-08-20T01:38:27.787Z,17.17
2018-08-20T01:40:56.316Z,17.44
2018-08-20T01:43:24.923Z,17.38
2018-08-20T01:45:53.400Z,17.57
2018-08-20T01:48:21.823Z,17.61
2018-08-20T01:50:50.395Z,17.46
2018-08-20T01:53:19.007Z,17.39
2018-08-20T01:55:47.482Z,17.35
2018-08-20T01:58:16.139Z,17.29
2018-08-20T02:00:44.807Z,17.34
2018-08-20T02:03:13.291Z,17.34
2018-08-20T02:05:41.928Z,17.31
2018-08-20T02:08:10.423Z,17.23
2018-08-20T02:10:38.935Z,17.25
2018-08-20T02:13:07.415Z,17.17
2018-08-20T02:15:35.891Z,17.02
2018-08-20T02:18:04.383Z,17.18
2018-08-20T02:20:32.990Z,17.06
2018-08-20T02:23:01.460Z,17.11
2018-08-20T02:25:29.954Z,17.15
2018-08-20T02:27:58.591Z,17.08
2018-08-20T02:30:27.091Z,17.09
2018-08-20T02:32:55.517Z,17.00
2018-08-20T02:35:24.115Z,16.85
2018-08-20T02:37:52.584Z,16.75
2018-08-20T02:40:21.158Z,16.76
2018-08-20T02:42:49.847Z,16.72
2018-08-20T02:45:19.245Z,16.62
2018-08-20T02:47:47.911Z,16.71
2018-08-20T02:50:16.851Z,16.70
2018-08-20T02:52:45.940Z,16.62
2018-08-20T02:55:14.615Z,16.65
2018-08-20T02:57:43.047Z,16.64
2018-08-20T03:00:13.668Z,16.57
2018-08-20T03:02:42.155Z,16.59
2018-08-20T03:05:12.123Z,16.49
2018-08-20T03:07:40.575Z,16.18
2018-08-20T03:10:11.376Z,16.46
2018-08-20T03:12:40.039Z,16.43
2018-08-20T03:15:09.543Z,16.50
2018-08-20T03:17:38.244Z,16.60
2018-08-20T03:20:07.248Z,16.61
2018-08-20T03:22:35.718Z,16.52
2018-08-20T03:25:05.103Z,16.53
2018-08-20T03:27:33.547Z,16.48
2018-08-20T03:30:02.040Z,16.64
2018-08-20T03:32:30.813Z,16.55
2018-08-20T03:34:59.306Z,16.54
2018-08-20T03:37:27.991Z,16.68
2018-08-20T03:39:56.411Z,16.68
2018-08-20T03:42:24.942Z,16.53
2018-08-20T03:44:53.515Z,16.48
2018-08-20T03:47:22.472Z,16.52
2018-08-20T03:49:51.529Z,16.62
2018-08-20T03:52:20.023Z,16.57
2018-08-20T03:54:48.503Z,16.55
2018-08-20T03:57:17.009Z,16.53
2018-08-20T03:59:45.451Z,16.50
2018-08-20T04:02:14.039Z,16.53
2018-08-20T04:04:42.491Z,16.55
2018-08-20T04:07:11.002Z,16.69
2018-08-20T04:09:39.646Z,16.68
2018-08-20T04:12:08.108Z,16.65
2018-08-20T04:14:36.534Z,16.71
2018-08-20T04:17:05.166Z,16.55
2018-08-20T04:19:33.611Z,16.56
2018-08-20T04:22:02.067Z,16.63
2018-08-20T04:24:30.748Z,16.54
2018-08-20T04:26:59.279Z,16.64
2018-08-20T04:29:27.714Z,16.54
2018-08-20T04:31:56.276Z,16.45
2018-08-20T04:34:24.711Z,16.62
2018-08-20T04:36:53.235Z,16.55
2018-08-20T04:39:21.703Z,16.61
2018-08-20T04:41:50.116Z,16.43
2018-08-20T04:44:18.579Z,16.47
2018-08-20T04:46:47.095Z,16.57
2018-08-20T04:49:15.495Z,16.71
2018-08-20T04:51:43.975Z,16.62
2018-08-20T04:54:12.679Z,16.64
2018-08-20T04:56:41.142Z,16.83
2018-08-20T04:59:09.970Z,16.95
2018-08-20T05:01:38.465Z,16.91
2018-08-20T05:04:07.383Z,16.80
2018-08-20T05:06:35.857Z,16.86
2018-08-20T05:09:05.840Z,17.00
2018-08-20T05:11:34.317Z,17.51
2018-08-20T05:14:02.804Z,18.12
2018-08-20T05:16:31.326Z,18.55
2018-08-20T05:18:59.806Z,19.04
2018-08-20T05:21:28.228Z,19.30
2018-08-20T05:23:57.063Z,19.53
2018-08-20T05:26:25.564Z,19.59
2018-08-20T05:28:54.039Z,20.05
2018-08-20T05:31:22.543Z,20.31
2018-08-20T05:33:50.999Z,20.53
2018-08-20T05:36:19.419Z,20.76
2018-08-20T05:38:47.925Z,20.70
2018-08-20T05:41:16.399Z,21.14
2018-08-20T05:43:44.804Z,21.23
2018-08-20T05:46:13.461Z,21.47
2018-08-20T05:48:41.916Z,21.44
2018-08-20T05:51:10.351Z,21.49
2018-08-20T05:53:38.803Z,21.77
2018-08-20T05:56:07.210Z,21.68
2018-08-20T05:58:35.751Z,21.54
2018-08-20T06:01:04.419Z,21.91
2018-08-20T06:03:32.857Z,21.65
2018-08-20T06:06:01.320Z,21.99
2018-08-20T06:08:29.858Z,21.82
2018-08-20T06:10:58.331Z,21.83
2018-08-20T06:13:26.795Z,22.09
2018-08-20T06:15:55.587Z,22.17
2018-08-20T06:18:24.028Z,21.89
2018-08-20T06:20:52.626Z,21.64
2018-08-20T06:23:21.152Z,21.86
2018-08-20T06:25:49.583Z,22.42
2018-08-20T06:28:18.183Z,22.64
2018-08-20T06:30:46.600Z,22.39
2018-08-20T06:33:15.077Z,22.66
2018-08-20T06:35:43.533Z,22.73
2018-08-20T06:38:12.008Z,22.68
2018-08-20T06:40:40.539Z,23.09
2018-08-20T06:43:09.047Z,22.54
2018-08-20T06:45:37.580Z,22.65
2018-08-20T06:48:06.398Z,22.21
2018-08-20T06:50:34.886Z,22.35
2018-08-20T06:53:03.303Z,22.13
2018-08-20T06:55:31.855Z,22.23
2018-08-20T06:58:02.192Z,22.79
2018-08-20T07:00:31.747Z,22.60
2018-08-20T07:03:00.249Z,22.71
2018-08-20T07:05:28.834Z,22.62
2018-08-20T07:07:57.352Z,22.52
2018-08-20T07:10:26.986Z,22.31
2018-08-20T07:12:55.532Z,22.64
2018-08-20T07:15:24.145Z,22.58
2018-08-20T07:17:52.664Z,22.60
2018-08-20T07:20:21.227Z,22.69
2018-08-20T07:22:49.729Z,22.76
2018-08-20T07:25:18.169Z,22.47
2018-08-20T07:27:46.696Z,22.72
2018-08-20T07:30:15.150Z,23.04
2018-08-20T07:32:43.584Z,22.70
2018-08-20T07:35:12.121Z,22.86
2018-08-20T07:37:40.684Z,22.63
2018-08-20T07:40:09.360Z,22.86
2018-08-20T07:42:37.951Z,22.89
2018-08-20T07:45:06.587Z,23.01
2018-08-20T07:47:35.111Z,23.33
2018-08-20T07:50:03.667Z,22.84
2018-08-20T07:52:32.378Z,22.82
2018-08-20T07:55:00.807Z,22.85
2018-08-20T07:57:29.225Z,23.57
2018-08-20T07:59:57.678Z,23.64
2018-08-20T08:02:26.196Z,23.45
2018-08-20T08:04:54.635Z,23.46
2018-08-20T08:07:23.238Z,23.72
2018-08-20T08:09:51.715Z,23.73
2018-08-20T08:12:20.165Z,23.50
2018-08-20T08:14:48.695Z,23.54
2018-08-20T08:17:17.159Z,23.83
2018-08-20T08:19:45.620Z,23.93
2018-08-20T08:22:14.400Z,24.24
2018-08-20T08:24:42.896Z,24.01
2018-08-20T08:27:11.321Z,24.05
2018-08-20T08:29:40.143Z,23.98
2018-08-20T08:32:08.655Z,24.06
2018-08-20T08:34:37.128Z,24.32
2018-08-20T08:37:06.032Z,24.39
2018-08-20T08:39:34.507Z,24.69
2018-08-20T08:42:03.148Z,24.54
2018-08-20T08:44:31.719Z,24.54
2018-08-20T08:47:00.212Z,24.86
2018-08-20T08:49:28.722Z,24.40
2018-08-20T08:51:57.348Z,24.90
2018-08-20T08:54:25.891Z,24.72
2018-08-20T08:56:54.347Z,24.63
2018-08-20T08:59:23.244Z,25.21
2018-08-20T09:01:51.791Z,25.42
2018-08-20T09:04:20.271Z,24.56
2018-08-20T09:06:48.872Z,24.49
2018-08-20T09:09:17.332Z,24.65
2018-08-20T09:11:45.843Z,24.78
2018-08-20T09:14:14.512Z,25.34
2018-08-20T09:16:43.171Z,25.38
2018-08-20T09:19:11.643Z,25.77
2018-08-20T09:21:40.169Z,25.32
2018-08-20T09:24:09.316Z,25.67
2018-08-20T09:26:37.855Z,25.79
2018-08-20T09:29:06.691Z,26.00
2018-08-20T09:31:35.155Z,25.78
2018-08-20T09:34:03.647Z,25.56
2018-08-20T09:36:32.399Z,26.29
2018-08-20T09:39:00.960Z,26.22
2018-08-20T09:41:29.651Z,25.62
2018-08-20T09:43:58.319Z,26.17
2018-08-20T09:46:26.728Z,25.52
2018-08-20T09:48:55.218Z,25.78
2018-08-20T09:51:24.014Z,26.02
2018-08-20T09:53:52.495Z,25.97
2018-08-20T09:56:20.987Z,26.09
2018-08-20T09:58:49.655Z,26.78
2018-08-20T10:01:18.183Z,26.50
2018-08-20T10:03:46.991Z,27.11
2018-08-20T10:06:16.467Z,26.91
2018-08-20T10:08:45.255Z,26.60
2018-08-20T10:11:14.151Z,27.48
2018-08-20T10:13:42.880Z,26.68
2018-08-20T10:16:11.345Z,27.07
2018-08-20T10:18:40.343Z,27.71
2018-08-20T10:21:08.839Z,27.74
2018-08-20T10:23:37.275Z,27.22
2018-08-20T10:26:06.343Z,28.12
2018-08-20T10:28:34.980Z,28.18
2018-08-20T10:31:03.594Z,28.10
2018-08-20T10:33:32.103Z,27.01
2018-08-20T10:36:00.752Z,27.11
2018-08-20T10:38:29.208Z,27.36
2018-08-20T10:40:57.699Z,27.71
2018-08-20T10:43:26.150Z,27.68
2018-08-20T10:45:59.900Z,27.57
2018-08-20T10:48:28.328Z,27.45
2018-08-20T10:50:56.902Z,27.05
2018-08-20T10:53:25.395Z,27.25
2018-08-20T10:55:53.882Z,27.33
2018-08-20T10:58:22.385Z,27.49
2018-08-20T11:00:50.851Z,27.54
2018-08-20T11:03:19.412Z,27.30
2018-08-20T11:05:47.883Z,27.51
2018-08-20T11:08:16.316Z,27.47
2018-08-20T11:10:44.965Z,27.65
2018-08-20T11:13:13.456Z,27.48
2018-08-20T11:15:41.940Z,27.69
2018-08-20T11:18:10.435Z,27.82
2018-08-20T11:20:38.934Z,27.59
2018-08-20T11:23:07.383Z,27.97
2018-08-20T11:25:35.931Z,28.49
2018-08-20T11:28:04.548Z,28.71
2018-08-20T11:30:32.927Z,27.99
2018-08-20T11:33:01.546Z,27.48
2018-08-20T11:35:29.969Z,27.45
2018-08-20T11:37:58.543Z,27.45
2018-08-20T11:40:27.095Z,28.13
2018-08-20T11:42:55.587Z,27.94
2018-08-20T11:45:24.076Z,28.25
2018-08-20T11:47:52.556Z,27.82
2018-08-20T11:50:21.029Z,27.57
2018-08-20T11:52:49.533Z,27.71
2018-08-20T11:55:17.979Z,28.61
2018-08-20T11:57:46.500Z,28.65
2018-08-20T12:00:14.963Z,28.95
2018-08-20T12:02:43.731Z,29.11
2018-08-20T12:05:12.234Z,29.34
2018-08-20T12:07:40.712Z,29.23
2018-08-20T12:10:10.169Z,29.69
2018-08-20T12:12:39.137Z,29.46
2018-08-20T12:15:09.807Z,28.95
2018-08-20T12:17:38.411Z,28.60
2018-08-20T12:20:07.812Z,28.67
2018-08-20T12:22:36.544Z,28.51
2018-08-20T12:25:06.060Z,28.97
2018-08-20T12:27:34.745Z,28.92
2018-08-20T12:30:03.575Z,28.90
2018-08-20T12:32:31.963Z,28.75
2018-08-20T12:35:00.496Z,27.99
2018-08-20T12:37:28.983Z,28.21
2018-08-20T12:39:57.657Z,28.71
2018-08-20T12:42:26.084Z,28.80
2018-08-20T12:44:54.736Z,29.08
2018-08-20T12:47:23.151Z,29.18
2018-08-20T12:49:51.582Z,29.09
2018-08-20T12:52:20.215Z,28.83
2018-08-20T12:54:48.723Z,29.15
2018-08-20T12:57:17.185Z,28.88
2018-08-20T12:59:45.647Z,29.62
2018-08-20T13:02:14.115Z,29.08
2018-08-20T13:04:42.743Z,29.88
2018-08-20T13:07:11.503Z,29.85
2018-08-20T13:09:39.911Z,29.79
2018-08-20T13:12:08.560Z,29.41
2018-08-20T13:14:37.028Z,29.40
2018-08-20T13:17:05.752Z,29.30
2018-08-20T13:19:34.195Z,29.32
2018-08-20T13:22:02.723Z,28.98
2018-08-20T13:24:31.240Z,29.29
2018-08-20T13:26:59.779Z,28.99
2018-08-20T13:29:28.348Z,28.71
2018-08-20T13:31:56.861Z,28.76
2018-08-20T13:34:25.347Z,29.05
2018-08-20T13:36:54.027Z,28.71
2018-08-20T13:39:22.455Z,28.81
2018-08-20T13:41:50.885Z,28.80
2018-08-20T13:44:20.133Z,28.73
2018-08-20T13:46:48.689Z,28.87
2018-08-20T13:49:17.096Z,28.90
2018-08-20T13:51:45.657Z,28.89
2018-08-20T13:54:14.118Z,28.68
2018-08-20T13:56:42.533Z,28.88
2018-08-20T13:59:11.040Z,28.63
2018-08-20T14:01:39.505Z,28.73
2018-08-20T14:04:08.129Z,28.75
2018-08-20T14:06:36.664Z,28.61
2018-08-20T14:09:07.511Z,28.68
2018-08-20T14:11:36.059Z,28.70
2018-08-20T14:14:04.895Z,29.07
2018-08-20T14:16:33.327Z,28.98
2018-08-20T14:19:01.800Z,28.80
2018-08-20T14:21:30.327Z,28.90
2018-08-20T14:23:58.778Z,28.83
2018-08-20T14:26:27.387Z,28.67
2018-08-20T14:28:55.931Z,29.06
2018-08-20T14:31:24.380Z,29.14
2018-08-20T14:33:53.165Z,28.61
2018-08-20T14:36:21.605Z,28.79
2018-08-20T14:38:50.089Z,28.63
2018-08-20T14:41:18.626Z,29.07
2018-08-20T14:43:47.048Z,29.09
2018-08-20T14:46:20.449Z,29.30
2018-08-20T14:48:49.389Z,28.93
2018-08-20T14:51:17.988Z,29.16
2018-08-20T14:53:46.572Z,29.02
2018-08-20T14:56:15.068Z,28.94
2018-08-20T14:58:43.555Z,28.62
2018-08-20T15:01:12.144Z,28.55
2018-08-20T15:03:40.555Z,28.62
2018-08-20T15:06:09.087Z,28.45
2018-08-20T15:08:39.459Z,28.44
2018-08-20T15:11:08.000Z,28.93
2018-08-20T15:13:36.824Z,28.79
2018-08-20T15:16:05.476Z,28.80
2018-08-20T15:18:33.998Z,29.10
2018-08-20T15:21:02.480Z,29.13
2018-08-20T15:23:31.003Z,29.01
2018-08-20T15:25:59.399Z,28.81
2018-08-20T15:28:27.859Z,28.59
2018-08-20T15:30:56.520Z,28.53
2018-08-20T15:33:25.053Z,28.65
2018-08-20T15:35:53.548Z,29.00
2018-08-20T15:38:22.312Z,28.88
2018-08-20T15:40:50.722Z,28.53
2018-08-20T15:43:19.244Z,28.49
2018-08-20T15:45:47.760Z,28.67
2018-08-20T15:48:16.214Z,28.89
2018-08-20T15:50:44.638Z,29.06
2018-08-20T15:53:13.166Z,29.03
2018-08-20T15:55:41.578Z,28.97
2018-08-20T15:58:10.123Z,28.88
2018-08-20T16:00:38.751Z,28.62
2018-08-20T16:03:07.571Z,28.70
2018-08-20T16:05:36.155Z,28.85
2018-08-20T16:08:04.960Z,28.66
2018-08-20T16:10:33.383Z,28.71
2018-08-20T16:13:01.907Z,28.87
2018-08-20T16:15:30.368Z,28.76
2018-08-20T16:17:58.852Z,28.97
2018-08-20T16:20:27.310Z,28.87
2018-08-20T16:22:55.863Z,29.06
2018-08-20T16:25:24.435Z,28.91
2018-08-20T16:27:52.939Z,28.67
2018-08-20T16:30:21.724Z,28.46
2018-08-20T16:32:50.223Z,28.10
2018-08-20T16:35:18.643Z,28.57
2018-08-20T16:37:47.595Z,28.46
2018-08-20T16:40:16.140Z,28.44
2018-08-20T16:42:44.632Z,28.33
2018-08-20T16:45:13.115Z,28.31
2018-08-20T16:47:41.593Z,28.33
2018-08-20T16:50:12.199Z,27.99
2018-08-20T16:52:40.921Z,28.21
2018-08-20T16:55:10.202Z,28.24
2018-08-20T16:57:38.895Z,28.39
2018-08-20T17:00:09.544Z,28.34
2018-08-20T17:02:41.419Z,28.08
2018-08-20T17:05:11.363Z,28.19
2018-08-20T17:07:39.852Z,28.25
2018-08-20T17:10:10.110Z,28.08
2018-08-20T17:12:38.880Z,27.93
2018-08-20T17:15:13.431Z,27.90
2018-08-20T17:17:41.975Z,27.85
2018-08-20T17:20:12.019Z,27.64
2018-08-20T17:22:40.731Z,27.71
2018-08-20T17:25:09.420Z,27.60
2018-08-20T17:27:37.904Z,27.62
2018-08-20T17:30:08.307Z,27.50
2018-08-20T17:32:36.828Z,27.33
2018-08-20T17:35:07.876Z,27.44
2018-08-20T17:37:36.404Z,27.54
2018-08-20T17:40:09.507Z,27.35
2018-08-20T17:42:38.189Z,27.18
2018-08-20T17:45:08.414Z,27.15
2018-08-20T17:47:40.098Z,27.03
2018-08-20T17:50:24.575Z,27.02
2018-08-20T17:52:53.629Z,27.04
2018-08-20T17:55:22.486Z,27.06
2018-08-20T17:57:51.418Z,27.26
2018-08-20T18:00:24.800Z,27.11
2018-08-20T18:02:53.295Z,26.98
2018-08-20T18:05:23.454Z,26.99
2018-08-20T18:07:52.475Z,26.74
2018-08-20T18:10:21.232Z,26.77
2018-08-20T18:12:49.735Z,26.51
2018-08-20T18:15:18.358Z,26.81
2018-08-20T18:17:46.996Z,26.72
2018-08-20T18:20:15.521Z,26.29
2018-08-20T18:22:44.070Z,26.45
2018-08-20T18:25:13.188Z,26.29
2018-08-20T18:27:43.668Z,26.25
2018-08-20T18:30:14.027Z,26.40
2018-08-20T18:32:42.932Z,26.17
2018-08-20T18:35:11.886Z,26.01
2018-08-20T18:37:51.425Z,25.78
2018-08-20T18:40:20.360Z,25.73
2018-08-20T18:42:49.848Z,25.22
2018-08-20T18:45:18.934Z,25.13
2018-08-20T18:47:48.049Z,25.24
2018-08-20T18:50:17.093Z,25.36
2018-08-20T18:52:46.292Z,25.03
2018-08-20T18:55:15.268Z,24.42
2018-08-20T18:57:44.327Z,24.61
2018-08-20T19:00:14.459Z,24.27
2018-08-20T19:02:52.960Z,24.12
2018-08-20T19:05:23.050Z,24.27
2018-08-20T19:07:52.093Z,24.07
2018-08-20T19:10:23.402Z,24.02
2018-08-20T19:12:53.041Z,24.09
2018-08-20T19:15:39.414Z,23.56
2018-08-20T19:18:10.135Z,24.21
2018-08-20T19:20:39.591Z,23.90
2018-08-20T19:23:09.194Z,23.68
2018-08-20T19:25:38.349Z,23.61
2018-08-20T19:28:12.530Z,23.98
2018-08-20T19:30:41.632Z,23.95
2018-08-20T19:33:16.502Z,23.76
2018-08-20T19:35:45.866Z,24.18
2018-08-20T19:38:15.026Z,23.91
2018-08-20T19:40:44.092Z,24.16
2018-08-20T19:43:13.219Z,23.85
2018-08-20T19:45:45.033Z,23.63
2018-08-20T19:48:15.159Z,23.68
2018-08-20T19:50:44.178Z,23.74
2018-08-20T19:53:18.180Z,23.51
2018-08-20T19:55:47.297Z,23.73
2018-08-20T19:58:36.399Z,23.60
2018-08-20T20:01:14.936Z,23.52
2018-08-20T20:03:47.205Z,23.57
2018-08-20T20:06:16.567Z,23.49
2018-08-20T20:08:45.806Z,23.40
2018-08-20T20:11:22.886Z,23.27
2018-08-20T20:16:54.372Z,23.04
2018-08-20T20:19:23.498Z,23.20
2018-08-20T20:21:52.430Z,22.95
2018-08-20T20:24:21.413Z,22.92
2018-08-20T20:26:50.893Z,22.72
2018-08-20T20:29:20.829Z,22.76
2018-08-20T20:31:49.832Z,22.78
2018-08-20T20:34:19.110Z,22.83
2018-08-20T20:36:47.912Z,22.81
2018-08-20T20:39:16.433Z,22.84
2018-08-20T20:41:45.020Z,22.91
2018-08-20T20:44:13.651Z,22.93
2018-08-20T20:46:42.172Z,22.93
2018-08-20T20:49:10.823Z,22.97
2018-08-20T20:51:39.280Z,23.00
2018-08-20T20:54:07.847Z,22.89
2018-08-20T20:56:36.358Z,23.06
2018-08-20T20:59:04.820Z,22.80
2018-08-20T21:01:33.390Z,22.68
2018-08-20T21:04:05.096Z,22.61
2018-08-20T21:06:36.845Z,22.71
2018-08-20T21:09:11.283Z,22.68
2018-08-20T21:11:39.813Z,22.73
2018-08-20T21:14:08.450Z,22.86
2018-08-20T21:16:37.115Z,22.98
2018-08-20T21:19:06.192Z,23.34
2018-08-20T21:21:34.779Z,23.33
2018-08-20T21:24:06.590Z,23.17
2018-08-20T21:26:35.144Z,23.15
2018-08-20T21:29:03.663Z,23.01
2018-08-20T21:31:37.655Z,22.92
2018-08-20T21:34:06.167Z,22.88
2018-08-20T21:36:34.649Z,22.62
2018-08-20T21:39:03.881Z,22.42
2018-08-20T21:41:32.319Z,21.75
2018-08-20T21:44:01.155Z,21.66
2018-08-20T21:46:29.819Z,21.70
2018-08-20T21:48:58.227Z,22.05
2018-08-20T21:51:33.752Z,22.30
2018-08-20T21:54:02.265Z,22.33
2018-08-20T21:56:42.197Z,22.60
2018-08-20T21:59:10.723Z,22.40
2018-08-20T22:01:39.227Z,22.95
2018-08-20T22:04:13.119Z,22.93
2018-08-20T22:06:41.664Z,22.69
2018-08-20T22:09:10.091Z,22.60
2018-08-20T22:11:38.572Z,22.38
2018-08-20T22:14:07.140Z,22.36
2018-08-20T22:16:35.607Z,21.94
2018-08-20T22:19:04.171Z,22.08
2018-08-20T22:21:32.623Z,21.94
2018-08-20T22:24:02.442Z,21.68
2018-08-20T22:26:30.982Z,21.73
2018-08-20T22:28:59.962Z,21.93
2018-08-20T22:31:28.751Z,22.17
2018-08-20T22:34:02.511Z,22.02
2018-08-20T22:36:32.104Z,21.94
2018-08-20T22:39:01.640Z,22.05
2018-08-20T22:41:31.076Z,22.27
2018-08-20T22:44:06.225Z,22.28
2018-08-20T22:46:34.747Z,22.29
2018-08-20T22:49:03.139Z,22.44
2018-08-20T22:51:31.631Z,22.35
2018-08-20T22:54:01.463Z,22.25
2018-08-20T22:56:31.335Z,22.32
2018-08-20T22:59:06.433Z,22.39
2018-08-20T23:01:34.946Z,22.56
2018-08-20T23:04:03.568Z,22.66
2018-08-20T23:06:31.986Z,22.51
2018-08-20T23:09:09.242Z,22.42
2018-08-20T23:11:42.275Z,22.33
2018-08-20T23:14:13.011Z,22.19
2018-08-20T23:16:41.791Z,22.14
2018-08-20T23:19:10.813Z,22.30
2018-08-20T23:21:41.275Z,22.30
2018-08-20T23:24:10.635Z,22.35
2018-08-20T23:26:39.336Z,22.39
2018-08-20T23:29:08.087Z,22.21
2018-08-20T23:31:36.739Z,22.35
2018-08-20T23:34:09.567Z,22.40
2018-08-20T23:36:38.371Z,22.31
2018-08-20T23:39:11.447Z,22.33
2018-08-20T23:41:40.223Z,22.42
2018-08-20T23:44:09.133Z,22.30
2018-08-20T23:46:43.812Z,22.02
2018-08-20T23:49:12.392Z,21.98
2018-08-20T23:51:40.983Z,21.97
2018-08-20T23:54:10.671Z,22.07
2018-08-20T23:56:39.134Z,21.89
2018-08-20T23:59:12.236Z,22.06
